Aérodrome :
LOGIN :

S'inscrire | Disclaimer

   EN    FR    IT 

 










Légende :    VFR   VFR Marginal   IFR   IFR Intensif   IFR Très Intensif
Visi : 
Plafond : 
>= 8 km
>= 3000ft
5 à 8 km
1000 à 3000 ft
1500m à 5 km
500 à 1000 ft
800 à 1500m
200 à 500 ft
< 800m
< 200 ft
Symboles :   Orages  Brouillard  Fortes neiges  Fortes précipitations  Vent > 20 kt
SIGMETs :   Divers  Orages  Givrage  Turbulence  Onde Orograph.  Cendres Volcan.






- Altitude de l'aérodrome : 268 ft
- Code IATA : BFS


EGAA - Belfast Aldergrove

DERNIER METAR :
  • 120450Z 17008KT 9999 -RA FEW039 03/02 Q0988

METARs EXPIRÉS :
  • 120420Z 20010KT 9999 -RA FEW049 03/02 Q0989
  • 120350Z 20011KT 9999 -RA FEW019 SCT025 BKN045 03/02 Q0990
  • 120320Z 19009KT 9999 -RA SCT019 BKN024 OVC031 02/02 Q0991
  • 120250Z 18009KT 9999 BKN026 BKN032 OVC037 02/02 Q0991
  • 120220Z 18008KT 9999 SCT036 BKN047 02/01 Q0992

TAF AMD TAF EGAA
Valide du 12 à 03h jusqu'au 13 à 00h UTC


120314Z 1203/1224 15008KT 9999 SCT008
TEMPO 1203/1213 6000 RA BKN007
PROB30
TEMPO 1204/1208 BKN004
BECMG 1213/1216 BKN003
TEMPO 1213/1219 3000 RADZ BR BKN001
PROB30
TEMPO 1215/1218 0800 BCFG
BECMG 1218/1221 24010KT
TEMPO 1219/1224 6000 SHRA RA BKN012



MET'MAP, la Météo Aéronautique d'un coup d'oeil ! - Copyright ORBIFLY Décembre 2007 - Disclaimer

ORBIFLY MET'MAP TEAM :

Programmation & Développement : Alexandra Zaïnal
Sur une idée originale de : Baudouin d'Aumeries
Assistance à la programmation : Marc-Olivier Méhu
Soutien technique & logistique : Manuel Goepfert

Contact : metmap@orbifly.com




SOURCES & CREDITS :

   NOAA